Nearby METAR Reports

 

KSJC - San Jose, California, USA
Distance from station: NE 9mi, 14km
Updated: Wed, 04-Aug-2021 8:53am PDT
Partly cloudy
Partly cloudy
 Wind from varies
Wind: varies 3 mph , 6 km/h
Temperature: 63°F , 17°C
Dew Point: 54°F , 12°C
Humidity: 73%
Barometer: 29.99 inHg , 1015.6 hPa
Clouds: Partly cloudy
Visibility: 8 miles , 13 km
Cloud details: Few Clouds 800 ft
Partly cloudy 1300 ft
2021/08/04 15:53 KSJC 041553Z VRB03KT 8SM FEW008 SCT013 17/12 A2999 RMK AO2 SLP155 T01670117
KRHV - San Jose/Reid, California, USA
Distance from station: ENE 12mi, 19km
Updated: Wed, 04-Aug-2021 8:47am PDT
Mostly cloudy
Mostly cloudy
 Wind from varies
Wind: varies 5 mph , 7 km/h
Temperature: 61°F , 16°C
Dew Point: 54°F , 12°C
Humidity: 77%
Barometer: 30.00 inHg , 1015.9 hPa
Clouds: Mostly cloudy
Visibility: 8 miles , 13 km
Cloud details: Partly cloudy 800 ft
Mostly cloudy 1200 ft
2021/08/04 15:47 KRHV 041547Z VRB04KT 8SM SCT008 BKN012 16/12 A3000
 
KPAO - Palo Alto, California, USA
Distance from station: NNW 14mi, 23km
Updated: Wed, 04-Aug-2021 8:47am PDT
Mostly cloudy
Mostly cloudy
 Wind from varies
Wind: varies 5 mph , 7 km/h
Temperature: 59°F , 15°C
Dew Point: 54°F , 12°C
Humidity: 82%
Barometer: 30.00 inHg , 1015.9 hPa
Clouds: Mostly cloudy
Visibility: 10 miles , 16 km
Cloud details: Mostly cloudy 1000 ft
2021/08/04 15:47 KPAO 041547Z VRB04KT 10SM BKN010 15/12 A3000
KOAK - Oakland, California, USA
Distance from station: NNW 31mi, 50km
Updated: Wed, 04-Aug-2021 8:53am PDT
Mostly cloudy
Mostly cloudy
 Wind from varies
Wind: varies 7 mph , 11 km/h
Temperature: 59°F , 15°C
Dew Point: 54°F , 12°C
Humidity: 82%
Barometer: 30.01 inHg , 1016.3 hPa
Clouds: Mostly cloudy
Visibility: 10 miles , 16 km
Cloud details: Few Clouds 800 ft
Mostly cloudy 1000 ft
Mostly cloudy 1200 ft
2021/08/04 15:53 KOAK 041553Z VRB06KT 10SM FEW008 BKN010 BKN012 15/12 A3001 RMK AO2 SLP161 T01500122
 
KSQL - San Carlos Airpo, California, USA
Distance from station: NW 21mi, 34km
Updated: Wed, 04-Aug-2021 8:48am PDT
Mostly cloudy
Mostly cloudy
 Wind from WNW
Wind: WNW 6 mph , 9 km/h
Temperature: 59°F , 15°C
Dew Point: 54°F , 12°C
Humidity: 82%
Barometer: 30.01 inHg , 1016.3 hPa
Clouds: Mostly cloudy
Visibility: 10 miles , 16 km
Cloud details: Mostly cloudy 1200 ft
2021/08/04 15:48 KSQL 041548Z 29005KT 10SM BKN012 15/12 A3001
KSFO - San Francisco, California, USA
Distance from station: NW 30mi, 49km
Updated: Wed, 04-Aug-2021 8:56am PDT
Mostly cloudy
Mostly cloudy
 Wind from varies
Wind: varies 7 mph , 11 km/h
Temperature: 57°F , 14°C
Dew Point: 54°F , 12°C
Humidity: 88%
Barometer: 29.99 inHg , 1015.6 hPa
Clouds: Mostly cloudy
Visibility: 10 miles , 16 km
Cloud details: Few Clouds 600 ft
Mostly cloudy 1000 ft
2021/08/04 15:56 KSFO 041556Z VRB06KT 10SM FEW006 BKN010 14/12 A2999 RMK AO2 SLP155 T01440117 $
 
KE16 - San Martin, California, USA
Distance from station: ESE 27mi, 43km
Updated: Wed, 04-Aug-2021 9:15am PDT
Mostly cloudy
Mostly cloudy
 Wind from calm
Wind: Calm
Temperature: 59°F , 15°C
Dew Point: 54°F , 12°C
Humidity: 82%
Barometer: 30.02 inHg , 1016.6 hPa
Clouds: Mostly cloudy
Visibility: 9 miles , 14 km
Cloud details: Mostly cloudy 800 ft
2021/08/04 16:15 KE16 041615Z AUTO 00000KT 9SM BKN008 15/12 A3002 RMK AO2 PWINO PNO
KWVI - Watsonville, California, USA
Distance from station: SSE 27mi, 44km
Updated: Wed, 04-Aug-2021 8:53am PDT
Overcast
Overcast
 Wind from calm
Wind: Calm
Temperature: 57°F , 14°C
Dew Point: 55°F , 13°C
Humidity: 94%
Barometer: 30.00 inHg , 1015.9 hPa
Clouds: Overcast
Visibility: 7 miles , 11 km
Cloud details: Overcast 400 ft
2021/08/04 15:53 KWVI 041553Z AUTO 00000KT 7SM OVC004 14/13 A3000 RMK AO2 SLP157 T01440133
 
KHAF - Half Moon Bay, California, USA
Distance from station: WNW 31mi, 50km
Updated: Fri, 09-Jul-2021 7:35am PDT
NOT Current
Light rain, Clear
Light rain, Clear
 
Temperature: 55°F , 13°C
Dew Point: 54°F , 12°C
Humidity: 94%
Barometer: 29.91 inHg , 1012.9 hPa
Summary: Light rain
Clouds: Clear
Visibility: 4 miles , 6 km
2021/07/09 14:35 KHAF 091435Z AUTO 4SM -RA CLR 13/12 A2991 RMK AO2
KHWD - Hayward, California, USA
Distance from station: N 28mi, 44km
Updated: Wed, 04-Aug-2021 8:54am PDT
Overcast
Overcast
 Wind from WNW
Wind: WNW 8 mph , 13 km/h
Temperature: 59°F , 15°C
Dew Point: 54°F , 12°C
Humidity: 82%
Barometer: 30.00 inHg , 1015.9 hPa
Clouds: Overcast
Visibility: 10 miles , 16 km
Cloud details: Overcast 1200 ft
2021/08/04 15:54 KHWD 041554Z 29007KT 10SM OVC012 15/12 A3000 RMK AO2 SLP167 T01500117
 
KLVK - Livermore, California, USA
Distance from station: NNE 31mi, 51km
Updated: Wed, 04-Aug-2021 8:53am PDT
Clear
Clear
 Wind from WNW
Wind: WNW 7 mph , 11 km/h
Temperature: 63°F , 17°C
Dew Point: 52°F , 11°C
Humidity: 68%
Barometer: 29.97 inHg , 1014.9 hPa
Clouds: Clear
Visibility: 10 miles , 16 km
2021/08/04 15:53 KLVK 041553Z 29006KT 10SM CLR 17/11 A2997 RMK AO2 SLP145 T01670111